< < Back
Terminal Aerodrome Forecast


Current Version              Previous Versions:   1  2  3  4  5  6  7  8  9  

Terminal Aerodrome Forecast

316
FTUS42 KGSP 211502 AAA
TAFAND
TAF AMD
KAND 211502Z 2115/2212 06006KT P6SM SCT020 OVC045
     FM211800 06005KT P6SM BKN022
     FM220200 08006KT P6SM OVC018
     FM220400 06007KT P6SM -RA OVC014=



Latest METAR

398
SAUS70 KWBC 220200 RRA
MTRAND
METAR KAND 220156Z AUTO 07008KT 10SM BKN031 OVC050 09/04 A3015 RMK AO2
SLP209 T00940044


USA.gov is the U.S. government's official web portal to all federal, state and local government web resources and services.